sensor_id;sensor_type;location;lat;lon;timestamp;P1;durP1;ratioP1;P2;durP2;ratioP2
21162;SDS011;10739;52.198;20.908;2022-10-19T00:03:41;32.88;;;22.85;;
21162;SDS011;10739;52.198;20.908;2022-10-19T00:06:15;33.95;;;23.75;;
21162;SDS011;10739;52.198;20.908;2022-10-19T00:08:55;30.13;;;21.65;;
21162;SDS011;10739;52.198;20.908;2022-10-19T00:11:32;29.90;;;19.45;;
21162;SDS011;10739;52.198;20.908;2022-10-19T00:14:03;24.67;;;17.02;;
21162;SDS011;10739;52.198;20.908;2022-10-19T00:16:32;21.80;;;15.77;;
21162;SDS011;10739;52.198;20.908;2022-10-19T00:19:04;25.75;;;16.08;;
21162;SDS011;10739;52.198;20.908;2022-10-19T00:21:34;24.75;;;16.25;;
21162;SDS011;10739;52.198;20.908;2022-10-19T00:24:02;24.25;;;16.05;;
21162;SDS011;10739;52.198;20.908;2022-10-19T00:26:28;27.90;;;18.10;;
21162;SDS011;10739;52.198;20.908;2022-10-19T00:28:54;29.88;;;19.75;;
21162;SDS011;10739;52.198;20.908;2022-10-19T00:31:21;29.77;;;20.73;;
21162;SDS011;10739;52.198;20.908;2022-10-19T00:33:48;32.42;;;21.80;;
21162;SDS011;10739;52.198;20.908;2022-10-19T00:36:19;34.05;;;21.50;;
21162;SDS011;10739;52.198;20.908;2022-10-19T00:38:50;30.60;;;22.40;;
21162;SDS011;10739;52.198;20.908;2022-10-19T00:41:18;35.08;;;23.00;;
21162;SDS011;10739;52.198;20.908;2022-10-19T00:44:03;31.52;;;23.85;;
21162;SDS011;10739;52.198;20.908;2022-10-19T00:46:51;36.60;;;23.63;;
21162;SDS011;10739;52.198;20.908;2022-10-19T00:49:22;36.15;;;23.60;;
21162;SDS011;10739;52.198;20.908;2022-10-19T00:51:54;40.47;;;23.33;;
21162;SDS011;10739;52.198;20.908;2022-10-19T00:54:25;38.10;;;24.85;;
21162;SDS011;10739;52.198;20.908;2022-10-19T00:56:53;40.80;;;25.83;;
21162;SDS011;10739;52.198;20.908;2022-10-19T00:59:22;38.95;;;25.80;;
21162;SDS011;10739;52.198;20.908;2022-10-19T01:01:51;35.10;;;24.48;;
21162;SDS011;10739;52.198;20.908;2022-10-19T01:04:19;38.72;;;25.10;;
21162;SDS011;10739;52.198;20.908;2022-10-19T01:06:49;36.70;;;25.65;;
21162;SDS011;10739;52.198;20.908;2022-10-19T01:09:16;38.38;;;25.13;;
21162;SDS011;10739;52.198;20.908;2022-10-19T01:11:46;37.72;;;24.38;;
21162;SDS011;10739;52.198;20.908;2022-10-19T01:35:26;32.13;;;18.88;;
21162;SDS011;10739;52.198;20.908;2022-10-19T01:38:22;30.35;;;19.88;;
21162;SDS011;10739;52.198;20.908;2022-10-19T01:40:54;28.43;;;18.83;;
21162;SDS011;10739;52.198;20.908;2022-10-19T01:43:39;37.20;;;17.85;;
21162;SDS011;10739;52.198;20.908;2022-10-19T01:49:03;31.58;;;18.42;;
21162;SDS011;10739;52.198;20.908;2022-10-19T01:52:11;29.83;;;18.30;;
21162;SDS011;10739;52.198;20.908;2022-10-19T01:54:44;32.67;;;18.73;;
21162;SDS011;10739;52.198;20.908;2022-10-19T01:57:18;28.52;;;17.95;;
21162;SDS011;10739;52.198;20.908;2022-10-19T01:59:53;26.40;;;17.98;;
21162;SDS011;10739;52.198;20.908;2022-10-19T02:02:23;29.92;;;17.27;;
21162;SDS011;10739;52.198;20.908;2022-10-19T02:04:52;30.23;;;18.75;;
21162;SDS011;10739;52.198;20.908;2022-10-19T02:07:22;27.00;;;17.35;;
21162;SDS011;10739;52.198;20.908;2022-10-19T02:09:50;27.60;;;18.00;;
21162;SDS011;10739;52.198;20.908;2022-10-19T02:12:16;39.42;;;19.33;;
21162;SDS011;10739;52.198;20.908;2022-10-19T02:14:46;30.20;;;19.80;;
21162;SDS011;10739;52.198;20.908;2022-10-19T02:17:24;36.17;;;19.70;;
21162;SDS011;10739;52.198;20.908;2022-10-19T02:19:58;40.72;;;21.42;;
21162;SDS011;10739;52.198;20.908;2022-10-19T02:22:26;36.25;;;20.70;;
21162;SDS011;10739;52.198;20.908;2022-10-19T02:24:53;31.50;;;20.50;;
21162;SDS011;10739;52.198;20.908;2022-10-19T02:27:20;32.92;;;21.10;;
21162;SDS011;10739;52.198;20.908;2022-10-19T02:29:46;41.75;;;23.02;;
21162;SDS011;10739;52.198;20.908;2022-10-19T02:32:12;38.88;;;21.27;;
21162;SDS011;10739;52.198;20.908;2022-10-19T02:34:39;37.10;;;21.00;;
21162;SDS011;10739;52.198;20.908;2022-10-19T02:37:06;32.72;;;21.85;;
21162;SDS011;10739;52.198;20.908;2022-10-19T02:39:32;35.40;;;21.48;;
21162;SDS011;10739;52.198;20.908;2022-10-19T02:42:03;30.70;;;20.45;;
21162;SDS011;10739;52.198;20.908;2022-10-19T02:44:51;34.65;;;21.13;;
21162;SDS011;10739;52.198;20.908;2022-10-19T02:47:34;42.47;;;20.98;;
21162;SDS011;10739;52.198;20.908;2022-10-19T02:50:08;37.97;;;21.08;;
21162;SDS011;10739;52.198;20.908;2022-10-19T02:52:39;40.17;;;21.60;;
21162;SDS011;10739;52.198;20.908;2022-10-19T02:55:06;33.25;;;21.00;;
21162;SDS011;10739;52.198;20.908;2022-10-19T02:57:33;36.05;;;22.42;;
21162;SDS011;10739;52.198;20.908;2022-10-19T02:59:59;41.00;;;21.83;;
21162;SDS011;10739;52.198;20.908;2022-10-19T03:02:27;38.65;;;22.52;;
21162;SDS011;10739;52.198;20.908;2022-10-19T03:04:53;30.90;;;20.33;;
21162;SDS011;10739;52.198;20.908;2022-10-19T03:07:20;37.17;;;21.55;;
21162;SDS011;10739;52.198;20.908;2022-10-19T03:09:46;33.47;;;21.23;;
21162;SDS011;10739;52.198;20.908;2022-10-19T03:12:13;38.05;;;22.23;;
21162;SDS011;10739;52.198;20.908;2022-10-19T03:14:40;32.00;;;20.80;;
21162;SDS011;10739;52.198;20.908;2022-10-19T03:17:07;33.85;;;20.85;;
21162;SDS011;10739;52.198;20.908;2022-10-19T03:19:34;36.20;;;21.80;;
21162;SDS011;10739;52.198;20.908;2022-10-19T03:22:01;33.05;;;20.45;;
21162;SDS011;10739;52.198;20.908;2022-10-19T03:24:28;36.38;;;19.48;;
21162;SDS011;10739;52.198;20.908;2022-10-19T03:26:55;41.10;;;20.35;;
21162;SDS011;10739;52.198;20.908;2022-10-19T03:29:22;31.13;;;18.65;;
21162;SDS011;10739;52.198;20.908;2022-10-19T03:31:48;30.85;;;19.05;;
21162;SDS011;10739;52.198;20.908;2022-10-19T03:34:14;33.05;;;19.65;;
21162;SDS011;10739;52.198;20.908;2022-10-19T03:36:40;36.22;;;19.58;;
21162;SDS011;10739;52.198;20.908;2022-10-19T03:39:10;40.40;;;20.23;;
21162;SDS011;10739;52.198;20.908;2022-10-19T03:41:39;36.35;;;20.48;;
21162;SDS011;10739;52.198;20.908;2022-10-19T03:44:06;32.13;;;19.02;;
21162;SDS011;10739;52.198;20.908;2022-10-19T03:46:34;41.72;;;20.10;;
21162;SDS011;10739;52.198;20.908;2022-10-19T03:49:02;33.70;;;19.10;;
21162;SDS011;10739;52.198;20.908;2022-10-19T03:51:29;37.42;;;19.23;;
21162;SDS011;10739;52.198;20.908;2022-10-19T03:54:04;32.92;;;17.50;;
21162;SDS011;10739;52.198;20.908;2022-10-19T03:56:33;34.80;;;19.17;;
21162;SDS011;10739;52.198;20.908;2022-10-19T03:59:01;27.70;;;16.63;;
21162;SDS011;10739;52.198;20.908;2022-10-19T04:01:31;28.17;;;17.63;;
21162;SDS011;10739;52.198;20.908;2022-10-19T04:04:08;25.98;;;16.38;;
21162;SDS011;10739;52.198;20.908;2022-10-19T04:06:39;26.65;;;16.75;;
21162;SDS011;10739;52.198;20.908;2022-10-19T04:09:10;28.67;;;15.82;;
21162;SDS011;10739;52.198;20.908;2022-10-19T04:11:39;26.88;;;15.63;;
21162;SDS011;10739;52.198;20.908;2022-10-19T04:14:06;26.20;;;15.98;;
21162;SDS011;10739;52.198;20.908;2022-10-19T04:16:34;32.33;;;15.18;;
21162;SDS011;10739;52.198;20.908;2022-10-19T04:19:00;21.83;;;14.88;;
21162;SDS011;10739;52.198;20.908;2022-10-19T04:21:32;31.65;;;14.38;;
21162;SDS011;10739;52.198;20.908;2022-10-19T04:24:22;23.30;;;14.32;;
21162;SDS011;10739;52.198;20.908;2022-10-19T04:26:49;22.33;;;12.85;;
21162;SDS011;10739;52.198;20.908;2022-10-19T04:29:19;22.10;;;12.68;;
21162;SDS011;10739;52.198;20.908;2022-10-19T04:31:49;21.25;;;11.77;;
21162;SDS011;10739;52.198;20.908;2022-10-19T04:34:17;23.05;;;11.85;;
21162;SDS011;10739;52.198;20.908;2022-10-19T04:36:43;19.63;;;11.70;;
21162;SDS011;10739;52.198;20.908;2022-10-19T04:39:10;27.67;;;12.07;;
21162;SDS011;10739;52.198;20.908;2022-10-19T04:41:37;22.30;;;11.52;;
21162;SDS011;10739;52.198;20.908;2022-10-19T04:44:04;23.55;;;11.73;;
21162;SDS011;10739;52.198;20.908;2022-10-19T04:46:31;26.00;;;12.80;;
21162;SDS011;10739;52.198;20.908;2022-10-19T04:48:57;25.52;;;12.07;;
21162;SDS011;10739;52.198;20.908;2022-10-19T04:51:25;24.20;;;12.18;;
21162;SDS011;10739;52.198;20.908;2022-10-19T04:53:51;24.55;;;10.80;;
21162;SDS011;10739;52.198;20.908;2022-10-19T04:56:20;22.48;;;11.52;;
21162;SDS011;10739;52.198;20.908;2022-10-19T04:58:52;19.92;;;10.82;;
21162;SDS011;10739;52.198;20.908;2022-10-19T05:01:24;23.17;;;10.82;;
21162;SDS011;10739;52.198;20.908;2022-10-19T05:03:56;21.90;;;11.05;;
21162;SDS011;10739;52.198;20.908;2022-10-19T05:06:27;23.08;;;11.45;;
21162;SDS011;10739;52.198;20.908;2022-10-19T05:08:55;23.60;;;9.65;;
21162;SDS011;10739;52.198;20.908;2022-10-19T05:11:22;16.35;;;10.02;;
21162;SDS011;10739;52.198;20.908;2022-10-19T05:13:48;19.00;;;9.85;;
21162;SDS011;10739;52.198;20.908;2022-10-19T05:16:17;20.20;;;9.82;;
21162;SDS011;10739;52.198;20.908;2022-10-19T05:18:46;16.85;;;9.77;;
21162;SDS011;10739;52.198;20.908;2022-10-19T05:21:20;12.73;;;9.35;;
21162;SDS011;10739;52.198;20.908;2022-10-19T05:23:49;25.40;;;9.20;;
21162;SDS011;10739;52.198;20.908;2022-10-19T05:26:18;14.77;;;8.57;;
21162;SDS011;10739;52.198;20.908;2022-10-19T05:28:48;21.55;;;7.90;;
21162;SDS011;10739;52.198;20.908;2022-10-19T05:31:24;17.08;;;9.15;;
21162;SDS011;10739;52.198;20.908;2022-10-19T05:33:56;14.68;;;8.35;;
21162;SDS011;10739;52.198;20.908;2022-10-19T05:36:33;17.48;;;8.32;;
21162;SDS011;10739;52.198;20.908;2022-10-19T05:39:06;19.20;;;8.98;;
21162;SDS011;10739;52.198;20.908;2022-10-19T05:41:37;16.50;;;8.52;;
21162;SDS011;10739;52.198;20.908;2022-10-19T05:44:04;17.95;;;8.00;;
21162;SDS011;10739;52.198;20.908;2022-10-19T05:46:31;16.50;;;8.45;;
21162;SDS011;10739;52.198;20.908;2022-10-19T05:48:58;18.58;;;9.02;;
21162;SDS011;10739;52.198;20.908;2022-10-19T05:51:26;14.20;;;7.38;;
21162;SDS011;10739;52.198;20.908;2022-10-19T05:53:53;22.08;;;7.78;;
21162;SDS011;10739;52.198;20.908;2022-10-19T05:56:24;18.02;;;8.40;;
21162;SDS011;10739;52.198;20.908;2022-10-19T05:58:55;21.88;;;6.93;;
21162;SDS011;10739;52.198;20.908;2022-10-19T06:01:26;14.05;;;7.13;;
21162;SDS011;10739;52.198;20.908;2022-10-19T06:03:54;19.67;;;7.80;;
21162;SDS011;10739;52.198;20.908;2022-10-19T06:06:22;9.00;;;6.55;;
21162;SDS011;10739;52.198;20.908;2022-10-19T06:08:50;10.52;;;6.32;;
21162;SDS011;10739;52.198;20.908;2022-10-19T06:11:19;19.23;;;7.68;;
21162;SDS011;10739;52.198;20.908;2022-10-19T06:13:55;18.50;;;6.88;;
21162;SDS011;10739;52.198;20.908;2022-10-19T06:16:24;15.65;;;7.82;;
21162;SDS011;10739;52.198;20.908;2022-10-19T06:18:52;18.33;;;7.60;;
21162;SDS011;10739;52.198;20.908;2022-10-19T06:21:21;17.65;;;8.68;;
21162;SDS011;10739;52.198;20.908;2022-10-19T06:23:51;18.33;;;7.80;;
21162;SDS011;10739;52.198;20.908;2022-10-19T06:26:19;18.13;;;7.80;;
21162;SDS011;10739;52.198;20.908;2022-10-19T06:28:46;16.17;;;8.07;;
21162;SDS011;10739;52.198;20.908;2022-10-19T06:31:14;18.48;;;8.35;;
21162;SDS011;10739;52.198;20.908;2022-10-19T06:33:41;16.38;;;7.75;;
21162;SDS011;10739;52.198;20.908;2022-10-19T06:36:10;20.83;;;8.48;;
21162;SDS011;10739;52.198;20.908;2022-10-19T06:38:40;23.65;;;9.38;;
21162;SDS011;10739;52.198;20.908;2022-10-19T06:41:08;11.75;;;8.02;;
21162;SDS011;10739;52.198;20.908;2022-10-19T06:43:35;17.20;;;8.13;;
21162;SDS011;10739;52.198;20.908;2022-10-19T06:46:02;16.38;;;8.43;;
21162;SDS011;10739;52.198;20.908;2022-10-19T06:48:31;17.92;;;8.20;;
21162;SDS011;10739;52.198;20.908;2022-10-19T06:50:59;16.17;;;8.95;;
21162;SDS011;10739;52.198;20.908;2022-10-19T06:53:28;13.85;;;8.75;;
21162;SDS011;10739;52.198;20.908;2022-10-19T06:55:56;13.25;;;8.07;;
21162;SDS011;10739;52.198;20.908;2022-10-19T06:58:23;14.73;;;8.85;;
21162;SDS011;10739;52.198;20.908;2022-10-19T07:00:54;14.73;;;8.70;;
21162;SDS011;10739;52.198;20.908;2022-10-19T07:03:22;16.50;;;9.15;;
21162;SDS011;10739;52.198;20.908;2022-10-19T07:05:53;17.23;;;8.93;;
21162;SDS011;10739;52.198;20.908;2022-10-19T07:08:22;20.90;;;8.68;;
21162;SDS011;10739;52.198;20.908;2022-10-19T07:10:54;14.82;;;8.02;;
21162;SDS011;10739;52.198;20.908;2022-10-19T07:13:25;15.60;;;8.35;;
21162;SDS011;10739;52.198;20.908;2022-10-19T07:16:00;13.18;;;7.32;;
21162;SDS011;10739;52.198;20.908;2022-10-19T07:18:32;16.60;;;6.88;;
21162;SDS011;10739;52.198;20.908;2022-10-19T07:21:01;11.38;;;6.35;;
21162;SDS011;10739;52.198;20.908;2022-10-19T07:23:31;13.05;;;5.97;;
21162;SDS011;10739;52.198;20.908;2022-10-19T07:26:02;14.05;;;6.05;;
21162;SDS011;10739;52.198;20.908;2022-10-19T07:28:37;13.23;;;6.70;;
21162;SDS011;10739;52.198;20.908;2022-10-19T07:31:05;9.85;;;5.13;;
21162;SDS011;10739;52.198;20.908;2022-10-19T07:33:37;9.93;;;5.45;;
21162;SDS011;10739;52.198;20.908;2022-10-19T07:36:08;14.82;;;4.35;;
21162;SDS011;10739;52.198;20.908;2022-10-19T07:38:36;9.13;;;4.10;;
21162;SDS011;10739;52.198;20.908;2022-10-19T07:41:03;15.98;;;4.47;;
21162;SDS011;10739;52.198;20.908;2022-10-19T07:43:39;8.02;;;4.40;;
21162;SDS011;10739;52.198;20.908;2022-10-19T07:46:10;12.57;;;4.40;;
21162;SDS011;10739;52.198;20.908;2022-10-19T07:48:43;15.45;;;5.40;;
21162;SDS011;10739;52.198;20.908;2022-10-19T07:51:11;10.05;;;4.63;;
21162;SDS011;10739;52.198;20.908;2022-10-19T07:53:39;15.15;;;6.40;;
21162;SDS011;10739;52.198;20.908;2022-10-19T07:56:08;12.20;;;5.47;;
21162;SDS011;10739;52.198;20.908;2022-10-19T07:58:39;12.70;;;5.20;;
21162;SDS011;10739;52.198;20.908;2022-10-19T08:01:09;15.82;;;5.68;;
21162;SDS011;10739;52.198;20.908;2022-10-19T08:03:51;10.82;;;5.43;;
21162;SDS011;10739;52.198;20.908;2022-10-19T08:06:19;13.23;;;5.28;;
21162;SDS011;10739;52.198;20.908;2022-10-19T08:08:46;11.05;;;5.28;;
21162;SDS011;10739;52.198;20.908;2022-10-19T08:11:15;14.30;;;6.00;;
21162;SDS011;10739;52.198;20.908;2022-10-19T08:13:43;11.15;;;5.90;;
21162;SDS011;10739;52.198;20.908;2022-10-19T08:19:06;10.77;;;5.95;;
21162;SDS011;10739;52.198;20.908;2022-10-19T08:21:40;11.73;;;5.82;;
21162;SDS011;10739;52.198;20.908;2022-10-19T08:24:15;15.90;;;6.82;;
21162;SDS011;10739;52.198;20.908;2022-10-19T08:26:44;15.10;;;7.45;;
21162;SDS011;10739;52.198;20.908;2022-10-19T08:31:43;10.98;;;7.35;;
21162;SDS011;10739;52.198;20.908;2022-10-19T08:34:13;9.82;;;6.50;;
21162;SDS011;10739;52.198;20.908;2022-10-19T08:36:40;11.15;;;7.85;;
21162;SDS011;10739;52.198;20.908;2022-10-19T08:39:07;15.57;;;8.07;;
21162;SDS011;10739;52.198;20.908;2022-10-19T08:47:43;10.80;;;7.55;;
21162;SDS011;10739;52.198;20.908;2022-10-19T08:50:28;15.90;;;7.82;;
21162;SDS011;10739;52.198;20.908;2022-10-19T08:53:06;11.93;;;7.70;;
21162;SDS011;10739;52.198;20.908;2022-10-19T09:04:39;10.95;;;5.53;;
21162;SDS011;10739;52.198;20.908;2022-10-19T09:10:08;12.40;;;6.20;;
21162;SDS011;10739;52.198;20.908;2022-10-19T09:15:25;8.10;;;4.90;;
21162;SDS011;10739;52.198;20.908;2022-10-19T09:18:18;15.23;;;5.22;;
21162;SDS011;10739;52.198;20.908;2022-10-19T09:20:56;10.45;;;4.10;;
21162;SDS011;10739;52.198;20.908;2022-10-19T09:24:05;8.60;;;4.50;;
21162;SDS011;10739;52.198;20.908;2022-10-19T09:26:54;7.65;;;4.70;;
21162;SDS011;10739;52.198;20.908;2022-10-19T09:29:28;7.18;;;5.07;;
21162;SDS011;10739;52.198;20.908;2022-10-19T09:32:04;9.18;;;5.22;;
21162;SDS011;10739;52.198;20.908;2022-10-19T09:34:43;19.77;;;6.78;;
21162;SDS011;10739;52.198;20.908;2022-10-19T09:37:17;15.52;;;6.10;;
21162;SDS011;10739;52.198;20.908;2022-10-19T09:39:46;9.43;;;5.95;;
21162;SDS011;10739;52.198;20.908;2022-10-19T09:42:17;11.95;;;5.60;;
21162;SDS011;10739;52.198;20.908;2022-10-19T09:44:50;14.88;;;6.55;;
21162;SDS011;10739;52.198;20.908;2022-10-19T09:47:25;12.20;;;5.72;;
21162;SDS011;10739;52.198;20.908;2022-10-19T09:50:14;7.22;;;4.97;;
21162;SDS011;10739;52.198;20.908;2022-10-19T09:52:57;9.95;;;5.10;;
21162;SDS011;10739;52.198;20.908;2022-10-19T09:55:35;9.32;;;5.57;;
21162;SDS011;10739;52.198;20.908;2022-10-19T10:00:45;10.13;;;4.70;;
21162;SDS011;10739;52.198;20.908;2022-10-19T10:03:27;7.10;;;3.67;;
21162;SDS011;10739;52.198;20.908;2022-10-19T10:08:35;6.10;;;3.60;;
21162;SDS011;10739;52.198;20.908;2022-10-19T10:11:10;7.38;;;3.72;;
21162;SDS011;10739;52.198;20.908;2022-10-19T10:13:41;4.55;;;2.35;;
21162;SDS011;10739;52.198;20.908;2022-10-19T10:16:15;2.50;;;1.60;;
21162;SDS011;10739;52.198;20.908;2022-10-19T10:21:26;2.20;;;0.75;;
21162;SDS011;10739;52.198;20.908;2022-10-19T10:26:45;1.67;;;0.43;;
21162;SDS011;10739;52.198;20.908;2022-10-19T10:31:56;2.28;;;0.50;;
21162;SDS011;10739;52.198;20.908;2022-10-19T10:34:39;3.97;;;0.80;;
21162;SDS011;10739;52.198;20.908;2022-10-19T10:37:42;2.22;;;1.00;;
21162;SDS011;10739;52.198;20.908;2022-10-19T10:42:54;2.67;;;1.00;;
21162;SDS011;10739;52.198;20.908;2022-10-19T10:48:13;0.75;;;0.70;;
21162;SDS011;10739;52.198;20.908;2022-10-19T10:51:02;0.82;;;0.63;;
21162;SDS011;10739;52.198;20.908;2022-10-19T10:59:59;2.80;;;0.88;;
21162;SDS011;10739;52.198;20.908;2022-10-19T11:10:50;2.33;;;1.10;;
21162;SDS011;10739;52.198;20.908;2022-10-19T11:16:16;5.25;;;1.27;;
21162;SDS011;10739;52.198;20.908;2022-10-19T11:18:56;5.60;;;1.42;;
21162;SDS011;10739;52.198;20.908;2022-10-19T11:24:40;4.65;;;1.50;;
21162;SDS011;10739;52.198;20.908;2022-10-19T11:27:42;3.37;;;1.30;;
21162;SDS011;10739;52.198;20.908;2022-10-19T11:30:31;2.13;;;1.50;;
21162;SDS011;10739;52.198;20.908;2022-10-19T11:36:19;3.10;;;1.55;;
21162;SDS011;10739;52.198;20.908;2022-10-19T11:42:27;3.25;;;1.40;;
21162;SDS011;10739;52.198;20.908;2022-10-19T11:48:26;1.23;;;0.50;;
21162;SDS011;10739;52.198;20.908;2022-10-19T11:51:31;2.85;;;0.50;;
21162;SDS011;10739;52.198;20.908;2022-10-19T11:57:55;2.70;;;0.50;;
21162;SDS011;10739;52.198;20.908;2022-10-19T12:00:55;1.70;;;0.77;;
21162;SDS011;10739;52.198;20.908;2022-10-19T12:03:46;1.15;;;0.88;;
21162;SDS011;10739;52.198;20.908;2022-10-19T12:06:38;2.58;;;0.70;;
21162;SDS011;10739;52.198;20.908;2022-10-19T12:09:37;2.47;;;0.70;;
21162;SDS011;10739;52.198;20.908;2022-10-19T12:17:53;2.13;;;0.90;;
21162;SDS011;10739;52.198;20.908;2022-10-19T12:23:26;1.52;;;0.75;;
21162;SDS011;10739;52.198;20.908;2022-10-19T12:26:03;2.80;;;0.88;;
21162;SDS011;10739;52.198;20.908;2022-10-19T12:28:35;4.20;;;1.13;;
21162;SDS011;10739;52.198;20.908;2022-10-19T12:31:06;4.40;;;0.95;;
21162;SDS011;10739;52.198;20.908;2022-10-19T12:36:13;5.35;;;0.98;;
21162;SDS011;10739;52.198;20.908;2022-10-19T12:47:32;1.40;;;0.52;;
21162;SDS011;10739;52.198;20.908;2022-10-19T12:49:59;1.00;;;0.40;;
21162;SDS011;10739;52.198;20.908;2022-10-19T12:52:58;1.08;;;0.52;;
21162;SDS011;10739;52.198;20.908;2022-10-19T12:55:26;4.15;;;0.68;;
21162;SDS011;10739;52.198;20.908;2022-10-19T12:58:00;2.40;;;1.08;;
21162;SDS011;10739;52.198;20.908;2022-10-19T13:00:30;15.85;;;5.55;;
21162;SDS011;10739;52.198;20.908;2022-10-19T13:03:14;2.67;;;0.68;;
21162;SDS011;10739;52.198;20.908;2022-10-19T13:05:57;4.72;;;0.93;;
21162;SDS011;10739;52.198;20.908;2022-10-19T13:08:28;1.35;;;0.70;;
21162;SDS011;10739;52.198;20.908;2022-10-19T13:11:15;2.67;;;1.13;;
21162;SDS011;10739;52.198;20.908;2022-10-19T13:13:55;3.10;;;0.85;;
21162;SDS011;10739;52.198;20.908;2022-10-19T13:21:44;5.53;;;1.05;;
21162;SDS011;10739;52.198;20.908;2022-10-19T13:24:35;4.57;;;2.15;;
21162;SDS011;10739;52.198;20.908;2022-10-19T13:40:55;8.57;;;1.85;;
21162;SDS011;10739;52.198;20.908;2022-10-19T13:43:37;4.95;;;1.17;;
21162;SDS011;10739;52.198;20.908;2022-10-19T13:46:13;1.08;;;0.65;;
21162;SDS011;10739;52.198;20.908;2022-10-19T13:55:11;2.17;;;1.00;;
21162;SDS011;10739;52.198;20.908;2022-10-19T14:04:48;5.67;;;1.03;;
21162;SDS011;10739;52.198;20.908;2022-10-19T14:11:12;4.70;;;1.63;;
21162;SDS011;10739;52.198;20.908;2022-10-19T14:13:38;3.30;;;1.30;;
21162;SDS011;10739;52.198;20.908;2022-10-19T14:16:04;1.20;;;0.60;;
21162;SDS011;10739;52.198;20.908;2022-10-19T14:18:32;3.25;;;0.50;;
21162;SDS011;10739;52.198;20.908;2022-10-19T14:21:02;4.00;;;0.75;;
21162;SDS011;10739;52.198;20.908;2022-10-19T14:23:34;4.15;;;0.52;;
21162;SDS011;10739;52.198;20.908;2022-10-19T14:26:10;2.43;;;0.90;;
21162;SDS011;10739;52.198;20.908;2022-10-19T14:28:44;1.10;;;0.85;;
21162;SDS011;10739;52.198;20.908;2022-10-19T14:31:19;1.63;;;1.20;;
21162;SDS011;10739;52.198;20.908;2022-10-19T14:33:50;2.13;;;1.00;;
21162;SDS011;10739;52.198;20.908;2022-10-19T14:36:22;2.58;;;0.80;;
21162;SDS011;10739;52.198;20.908;2022-10-19T14:38:56;3.28;;;1.10;;
21162;SDS011;10739;52.198;20.908;2022-10-19T14:43:52;1.98;;;0.93;;
21162;SDS011;10739;52.198;20.908;2022-10-19T14:46:23;1.13;;;0.80;;
21162;SDS011;10739;52.198;20.908;2022-10-19T14:48:57;3.28;;;0.70;;
21162;SDS011;10739;52.198;20.908;2022-10-19T14:54:32;1.95;;;0.85;;
21162;SDS011;10739;52.198;20.908;2022-10-19T14:57:17;1.63;;;0.95;;
21162;SDS011;10739;52.198;20.908;2022-10-19T15:00:01;2.17;;;0.82;;
21162;SDS011;10739;52.198;20.908;2022-10-19T15:02:40;1.42;;;1.00;;
21162;SDS011;10739;52.198;20.908;2022-10-19T15:05:17;1.35;;;0.68;;
21162;SDS011;10739;52.198;20.908;2022-10-19T15:07:48;0.45;;;0.45;;
21162;SDS011;10739;52.198;20.908;2022-10-19T15:12:44;3.10;;;0.80;;
21162;SDS011;10739;52.198;20.908;2022-10-19T15:15:15;4.30;;;1.13;;
21162;SDS011;10739;52.198;20.908;2022-10-19T15:28:51;2.78;;;0.73;;
21162;SDS011;10739;52.198;20.908;2022-10-19T15:31:24;2.38;;;0.90;;
21162;SDS011;10739;52.198;20.908;2022-10-19T15:33:54;2.47;;;0.90;;
21162;SDS011;10739;52.198;20.908;2022-10-19T15:36:23;2.47;;;1.25;;
21162;SDS011;10739;52.198;20.908;2022-10-19T15:38:58;4.35;;;1.20;;
21162;SDS011;10739;52.198;20.908;2022-10-19T15:41:35;3.83;;;1.23;;
21162;SDS011;10739;52.198;20.908;2022-10-19T15:44:04;2.67;;;1.45;;
21162;SDS011;10739;52.198;20.908;2022-10-19T15:47:10;11.00;;;1.20;;
21162;SDS011;10739;52.198;20.908;2022-10-19T15:49:51;3.55;;;1.17;;
21162;SDS011;10739;52.198;20.908;2022-10-19T15:52:31;1.67;;;1.15;;
21162;SDS011;10739;52.198;20.908;2022-10-19T15:54:58;3.03;;;1.20;;
21162;SDS011;10739;52.198;20.908;2022-10-19T15:57:27;3.03;;;1.30;;
21162;SDS011;10739;52.198;20.908;2022-10-19T15:59:56;3.53;;;1.40;;
21162;SDS011;10739;52.198;20.908;2022-10-19T16:02:24;2.65;;;1.23;;
21162;SDS011;10739;52.198;20.908;2022-10-19T16:04:51;3.25;;;1.38;;
21162;SDS011;10739;52.198;20.908;2022-10-19T16:07:26;2.05;;;1.25;;
21162;SDS011;10739;52.198;20.908;2022-10-19T16:09:56;4.30;;;1.45;;
21162;SDS011;10739;52.198;20.908;2022-10-19T16:12:23;2.13;;;1.60;;
21162;SDS011;10739;52.198;20.908;2022-10-19T16:14:51;3.55;;;1.63;;
21162;SDS011;10739;52.198;20.908;2022-10-19T16:17:18;1.83;;;1.42;;
21162;SDS011;10739;52.198;20.908;2022-10-19T16:19:45;7.60;;;1.80;;
21162;SDS011;10739;52.198;20.908;2022-10-19T16:22:12;6.22;;;1.85;;
21162;SDS011;10739;52.198;20.908;2022-10-19T16:24:38;2.92;;;1.70;;
21162;SDS011;10739;52.198;20.908;2022-10-19T16:27:05;10.55;;;2.35;;
21162;SDS011;10739;52.198;20.908;2022-10-19T16:29:33;5.40;;;2.22;;
21162;SDS011;10739;52.198;20.908;2022-10-19T16:31:59;4.93;;;2.28;;
21162;SDS011;10739;52.198;20.908;2022-10-19T16:34:26;4.38;;;2.33;;
21162;SDS011;10739;52.198;20.908;2022-10-19T16:36:52;5.22;;;2.80;;
21162;SDS011;10739;52.198;20.908;2022-10-19T16:39:18;4.43;;;2.22;;
21162;SDS011;10739;52.198;20.908;2022-10-19T16:41:44;3.65;;;2.17;;
21162;SDS011;10739;52.198;20.908;2022-10-19T16:44:11;4.85;;;2.88;;
21162;SDS011;10739;52.198;20.908;2022-10-19T16:46:37;5.78;;;2.15;;
21162;SDS011;10739;52.198;20.908;2022-10-19T16:49:04;5.10;;;2.55;;
21162;SDS011;10739;52.198;20.908;2022-10-19T16:51:34;6.95;;;2.05;;
21162;SDS011;10739;52.198;20.908;2022-10-19T16:54:06;4.90;;;2.50;;
21162;SDS011;10739;52.198;20.908;2022-10-19T16:56:35;6.03;;;2.60;;
21162;SDS011;10739;52.198;20.908;2022-10-19T16:59:09;4.47;;;2.70;;
21162;SDS011;10739;52.198;20.908;2022-10-19T17:01:39;6.97;;;3.22;;
21162;SDS011;10739;52.198;20.908;2022-10-19T17:04:08;6.88;;;3.33;;
21162;SDS011;10739;52.198;20.908;2022-10-19T17:06:35;9.07;;;3.42;;
21162;SDS011;10739;52.198;20.908;2022-10-19T17:09:03;5.95;;;3.13;;
21162;SDS011;10739;52.198;20.908;2022-10-19T17:11:33;5.78;;;3.58;;
21162;SDS011;10739;52.198;20.908;2022-10-19T17:14:04;8.52;;;3.83;;
21162;SDS011;10739;52.198;20.908;2022-10-19T17:16:36;6.43;;;3.38;;
21162;SDS011;10739;52.198;20.908;2022-10-19T17:19:04;7.60;;;2.85;;
21162;SDS011;10739;52.198;20.908;2022-10-19T17:21:33;4.70;;;2.78;;
21162;SDS011;10739;52.198;20.908;2022-10-19T17:24:06;5.07;;;2.50;;
21162;SDS011;10739;52.198;20.908;2022-10-19T17:26:38;3.88;;;2.40;;
21162;SDS011;10739;52.198;20.908;2022-10-19T17:29:07;3.20;;;2.40;;
21162;SDS011;10739;52.198;20.908;2022-10-19T17:31:34;3.05;;;2.13;;
21162;SDS011;10739;52.198;20.908;2022-10-19T17:34:04;6.00;;;2.45;;
21162;SDS011;10739;52.198;20.908;2022-10-19T17:36:32;5.95;;;2.60;;
21162;SDS011;10739;52.198;20.908;2022-10-19T17:39:10;5.15;;;2.20;;
21162;SDS011;10739;52.198;20.908;2022-10-19T17:41:42;4.47;;;2.53;;
21162;SDS011;10739;52.198;20.908;2022-10-19T17:44:09;2.83;;;1.85;;
21162;SDS011;10739;52.198;20.908;2022-10-19T17:46:36;3.70;;;2.28;;
21162;SDS011;10739;52.198;20.908;2022-10-19T17:49:02;2.38;;;1.85;;
21162;SDS011;10739;52.198;20.908;2022-10-19T17:51:30;7.13;;;2.22;;
21162;SDS011;10739;52.198;20.908;2022-10-19T17:54:00;5.93;;;2.33;;